This is the latest recevied weather packets stored in our database for station/object 9W3FAB-1. If no packets are shown the sender has not sent any weather packets the latest 10 day(s).
| Time | Temp. | Humidity | Pressure | Rain* | Wind** | Luminosity | Snow |
|---|---|---|---|---|---|---|---|
| 1777888921 | 28.33° C | 100% | 1006.5 hPa | - | - | - | - |
| 1777888020 | 28.89° C | 100% | 1006.4 hPa | - | - | - | - |
| 1777887119 | 29.44° C | 100% | 1005.9 hPa | - | - | - | - |
| 1777886219 | 28.33° C | 100% | 1006.2 hPa | - | - | - | - |
| 1777885318 | 29.44° C | 100% | 1006.1 hPa | - | - | - | - |
| 1777884417 | 30.56° C | 100% | 1005.7 hPa | - | - | - | - |
| 1777883516 | 31.11° C | 100% | 1005.4 hPa | - | - | - | - |
| 1777882615 | 31.11° C | 100% | 1005.2 hPa | - | - | - | - |
| 1777881714 | 31.11° C | 100% | 1005.3 hPa | - | - | - | - |
| 1777880814 | 31.11° C | 100% | 1005.2 hPa | - | - | - | - |
| 1777879913 | 31.11° C | 100% | 1005.3 hPa | - | - | - | - |
| 1777879011 | 31.11° C | 100% | 1005.3 hPa | - | - | - | - |
| 1777878110 | 31.67° C | 100% | 1005.5 hPa | - | - | - | - |
| 1777877209 | 31.11° C | 100% | 1005.7 hPa | - | - | - | - |
| 1777876308 | 31.11° C | 100% | 1006.1 hPa | - | - | - | - |
| 1777875407 | 31.11° C | 100% | 1006.4 hPa | - | - | - | - |
| 1777874507 | 31.11° C | 100% | 1006.7 hPa | - | - | - | - |
| 1777873605 | 30.56° C | 100% | 1007.1 hPa | - | - | - | - |
| 1777872703 | 30.56° C | 100% | 1007.3 hPa | - | - | - | - |
| 1777871802 | 30° C | 100% | 1007.8 hPa | - | - | - | - |
| 1777870901 | 29.44° C | 100% | 1008.1 hPa | - | - | - | - |
| 1777870001 | 30° C | 100% | 1008.5 hPa | - | - | - | - |
| 1777869100 | 30° C | 100% | 1008.6 hPa | - | - | - | - |
| 1777868199 | 31.11° C | 100% | 1008.8 hPa | - | - | - | - |
| 1777867298 | 30° C | 100% | 1009 hPa | - | - | - | - |
* Rain since midnight (hover to see other rain measurements)
** Current wind speed in m/s (hover to see current wind gust speed)